Time;durP1;ratioP1;P1;durP2;ratioP2;P2;SDS_P1;SDS_P2;PMS_P1;PMS_P2;Temp;Humidity;BMP_temperature;BMP_pressure;BME280_temperature;BME280_humidity;BME280_pressure;Samples;Min_cycle;Max_cycle;Signal;HPM_P1;HPM_P2
2023/10/05 00:01:02;;;;;;;;;;;;;;;12.60;98.99;102271.56;4923357;29;19907;-96
2023/10/05 00:03:30;;;;;;;;;;;;;;;12.59;98.29;102270.69;4921202;29;19915;-96
2023/10/05 00:06:10;;;;;;;;;;;;;;;12.60;98.42;102271.56;4924072;29;19974;-96
2023/10/05 00:08:47;;;;;;;;;;;;;;;12.60;99.05;102268.94;4924418;29;19927;-96
2023/10/05 00:11:28;;;;;;;;;;;;;;;12.58;99.19;102270.63;4923045;29;19922;-96
2023/10/05 00:14:04;;;;;;;;;;;;;;;12.59;98.68;102275.03;4922291;29;19915;-96
2023/10/05 00:16:46;;;;;;;;;;;;;;;12.57;99.19;102281.91;4922901;29;19922;-96
2023/10/05 00:19:26;;;;;;;;;;;;;;;12.57;98.89;102282.81;4922515;29;19899;-96
2023/10/05 00:22:00;;;;;;;;;;;;;;;12.57;98.94;102281.91;4921443;29;19930;-96
2023/10/05 00:24:39;;;;;;;;;;;;;;;12.54;98.93;102285.28;4922560;29;19926;-96
2023/10/05 00:27:29;;;;;;;;;;;;;;;12.53;98.87;102288.75;4922558;29;19930;-96
2023/10/05 00:30:13;;;;;;;;;;;;;;;12.53;99.16;102289.63;4938340;29;19915;-96
2023/10/05 00:32:52;;;;;;;;;;;;;;;12.52;99.47;102295.69;4939860;29;19954;-96
2023/10/05 00:35:28;;;;;;;;;;;;;;;12.52;99.28;102294.81;4923365;29;19915;-96
2023/10/05 00:37:58;;;;;;;;;;;;;;;12.50;99.38;102297.38;4922981;29;19899;-96
2023/10/05 00:40:56;;;;;;;;;;;;;;;12.55;99.64;102308.00;4939919;29;19990;-96
2023/10/05 00:43:26;;;;;;;;;;;;;;;12.51;99.48;102304.38;4923061;29;19921;-96
2023/10/05 00:46:03;;;;;;;;;;;;;;;12.53;99.65;102299.22;4908265;29;19927;-96
2023/10/05 00:51:54;;;;;;;;;;;;;;;12.54;99.55;102306.19;4938859;29;19974;-96
2023/10/05 00:54:40;;;;;;;;;;;;;;;12.51;99.96;102301.78;4917084;29;19915;-96
2023/10/05 00:57:29;;;;;;;;;;;;;;;12.52;99.95;102302.66;4918953;29;19900;-96
2023/10/05 01:08:59;;;;;;;;;;;;;;;12.51;100.00;102314.84;4874317;29;20346;-96
2023/10/05 01:11:54;;;;;;;;;;;;;;;12.49;100.00;102310.38;4882098;29;19920;-96
2023/10/05 01:14:45;;;;;;;;;;;;;;;12.46;100.00;102312.88;4896913;29;19916;-97
2023/10/05 01:17:28;;;;;;;;;;;;;;;12.47;100.00;102309.41;4902251;29;19960;-96
2023/10/05 01:19:56;;;;;;;;;;;;;;;12.43;100.00;102303.19;4900680;29;19919;-96
2023/10/05 01:22:40;;;;;;;;;;;;;;;12.45;100.00;102300.63;4903115;29;19916;-96
2023/10/05 01:25:07;;;;;;;;;;;;;;;12.42;100.00;102300.50;4901702;29;19915;-96
2023/10/05 01:35:26;;;;;;;;;;;;;;;12.41;100.00;102306.56;5632093;23;19934;-96
2023/10/05 01:37:59;;;;;;;;;;;;;;;12.39;100.00;102297.78;4960222;29;19923;-96
2023/10/05 01:40:36;;;;;;;;;;;;;;;12.41;100.00;102303.94;4959184;29;19946;-96
2023/10/05 01:43:19;;;;;;;;;;;;;;;12.41;100.00;102303.94;4977034;28;19914;-96
2023/10/05 01:45:48;;;;;;;;;;;;;;;12.42;100.00;102304.00;4960103;29;19915;-96
2023/10/05 01:48:28;;;;;;;;;;;;;;;;;;;;;
2023/10/05 01:51:05;;;;;;;;;;;;;;;12.38;100.00;102288.16;4976570;29;19954;-96
2023/10/05 01:53:39;;;;;;;;;;;;;;;12.37;100.00;102291.56;4960062;29;19921;-96
2023/10/05 01:56:11;;;;;;;;;;;;;;;12.36;100.00;102285.47;4958992;29;20394;-96
2023/10/05 01:58:43;;;;;;;;;;;;;;;12.35;100.00;102287.19;4972674;29;19923;-96
2023/10/05 02:01:20;;;;;;;;;;;;;;;12.34;100.00;102285.41;4959177;29;19918;-96
2023/10/05 02:03:58;;;;;;;;;;;;;;;12.32;100.00;102284.44;4955306;29;19915;-96
2023/10/05 02:06:49;;;;;;;;;;;;;;;12.34;100.00;102284.53;4958388;29;19914;-96
2023/10/05 02:09:20;;;;;;;;;;;;;;;12.33;100.00;102287.97;4959292;29;19920;-96
2023/10/05 02:11:52;;;;;;;;;;;;;;;12.37;100.00;102291.56;4975813;28;20001;-96
2023/10/05 02:14:32;;;;;;;;;;;;;;;;;;;;;
2023/10/05 02:17:03;;;;;;;;;;;;;;;12.30;100.00;102283.50;4975918;29;19942;-96
2023/10/05 02:19:36;;;;;;;;;;;;;;;12.31;100.00;102282.69;4958674;29;19938;-96
2023/10/05 02:24:58;;;;;;;;;;;;;;;12.32;100.00;102278.34;4957068;29;19919;-96
2023/10/05 02:27:26;;;;;;;;;;;;;;;12.29;100.00;102284.31;4958952;29;19966;-96
2023/10/05 02:29:53;;;;;;;;;;;;;;;12.27;100.00;102280.78;4957347;29;19921;-96
2023/10/05 02:32:27;;;;;;;;;;;;;;;12.24;100.00;102291.09;4943342;29;19919;-96
2023/10/05 02:35:18;;;;;;;;;;;;;;;12.24;100.00;102285.88;4975513;29;19943;-96
2023/10/05 02:38:05;;;;;;;;;;;;;;;12.28;100.00;102272.09;4958538;29;19957;-96
2023/10/05 02:40:46;;;;;;;;;;;;;;;12.22;100.00;102277.06;4958031;29;19918;-96
2023/10/05 02:43:17;;;;;;;;;;;;;;;12.17;100.00;102263.81;4956920;28;19915;-96
2023/10/05 02:45:56;;;;;;;;;;;;;;;12.18;100.00;102264.75;4946222;29;19918;-96
2023/10/05 02:48:30;;;;;;;;;;;;;;;12.15;100.00;102262.88;4960806;29;19939;-96
2023/10/05 02:51:05;;;;;;;;;;;;;;;12.14;100.00;102252.38;4961245;29;19914;-96
2023/10/05 02:53:58;;;;;;;;;;;;;;;12.09;100.00;102246.94;4959362;29;19933;-96
2023/10/05 02:56:40;;;;;;;;;;;;;;;12.09;100.00;102251.28;4963524;29;20078;-96
2023/10/05 02:59:14;;;;;;;;;;;;;;;12.08;100.00;102257.34;4943648;29;19925;-96
2023/10/05 03:01:47;;;;;;;;;;;;;;;12.05;100.00;102257.22;4962473;29;19942;-96
2023/10/05 03:09:18;;;;;;;;;;;;;;;12.02;100.00;102259.72;5715540;23;19947;-96
2023/10/05 03:12:04;;;;;;;;;;;;;;;12.01;100.00;102258.81;4942655;29;19927;-96
2023/10/05 03:14:29;;;;;;;;;;;;;;;12.00;100.00;102251.81;4941865;29;19938;-96
2023/10/05 03:17:18;;;;;;;;;;;;;;;11.99;100.00;102253.53;4941881;29;19914;-96
2023/10/05 03:19:47;;;;;;;;;;;;;;;11.99;100.00;102257.84;4939764;29;19925;-96
2023/10/05 03:22:15;;;;;;;;;;;;;;;11.97;100.00;102255.19;4941026;29;19982;-96
2023/10/05 03:25:00;;;;;;;;;;;;;;;11.98;100.00;102258.72;4941755;29;19950;-96
2023/10/05 03:27:57;;;;;;;;;;;;;;;11.96;100.00;102253.44;4942600;29;19899;-96
2023/10/05 03:30:48;;;;;;;;;;;;;;;11.95;100.00;102254.25;4936553;29;19939;-96
2023/10/05 03:33:27;;;;;;;;;;;;;;;11.94;100.00;102247.22;4942565;29;20284;-96
2023/10/05 03:35:58;;;;;;;;;;;;;;;11.91;100.00;102249.69;4940020;29;19915;-96
2023/10/05 03:38:32;;;;;;;;;;;;;;;11.94;100.00;102246.34;4941444;29;19914;-96
2023/10/05 03:41:26;;;;;;;;;;;;;;;11.91;100.00;102251.41;4957855;29;19918;-96
2023/10/05 03:44:03;;;;;;;;;;;;;;;11.89;100.00;102250.44;4940838;29;19925;-96
2023/10/05 03:46:48;;;;;;;;;;;;;;;11.87;100.00;102252.13;4940555;29;19926;-96
2023/10/05 03:49:21;;;;;;;;;;;;;;;11.87;100.00;102239.94;4941388;29;19946;-96
2023/10/05 03:54:52;;;;;;;;;;;;;;;11.84;100.00;102253.75;4956973;29;19926;-96
2023/10/05 03:57:21;;;;;;;;;;;;;;;11.81;100.00;102243.19;4941269;29;19914;-96
2023/10/05 04:00:07;;;;;;;;;;;;;;;11.80;100.00;102245.72;4924949;29;19946;-96
2023/10/05 04:02:44;;;;;;;;;;;;;;;11.79;100.00;102236.13;4940729;29;19923;-96
2023/10/05 04:05:17;;;;;;;;;;;;;;;11.79;100.00;102243.97;4941493;29;19938;-96
2023/10/05 04:07:52;;;;;;;;;;;;;;;11.77;100.00;102243.88;4941606;29;19919;-96
2023/10/05 04:10:46;;;;;;;;;;;;;;;11.77;100.00;102237.78;4942104;29;19923;-96
2023/10/05 04:13:14;;;;;;;;;;;;;;;11.76;100.00;102243.81;4958526;29;19915;-96
2023/10/05 04:15:58;;;;;;;;;;;;;;;11.73;100.00;102244.59;4958010;29;19926;-96
2023/10/05 04:18:29;;;;;;;;;;;;;;;11.73;100.00;102254.13;4940357;29;19918;-96
2023/10/05 04:21:22;;;;;;;;;;;;;;;11.71;100.00;102255.81;4941466;29;19902;-96
2023/10/05 04:24:04;;;;;;;;;;;;;;;11.70;100.00;102254.91;4954592;29;19922;-96
2023/10/05 04:26:45;;;;;;;;;;;;;;;11.68;100.00;102248.72;4939702;29;19919;-96
2023/10/05 04:29:12;;;;;;;;;;;;;;;11.67;100.00;102249.56;4938900;29;20017;-96
2023/10/05 04:31:48;;;;;;;;;;;;;;;11.66;100.00;102253.91;4940192;29;19911;-96
2023/10/05 04:34:24;;;;;;;;;;;;;;;11.64;100.00;102255.56;4938624;29;19915;-96
2023/10/05 04:36:52;;;;;;;;;;;;;;;11.64;100.00;102255.56;4940264;29;19918;-96
2023/10/05 04:39:27;;;;;;;;;;;;;;;11.62;100.00;102256.31;4941020;29;19907;-96
2023/10/05 04:42:11;;;;;;;;;;;;;;;11.61;100.00;102257.13;4939473;29;19910;-96
2023/10/05 04:44:46;;;;;;;;;;;;;;;11.61;100.00;102262.38;4939562;29;19945;-96
2023/10/05 04:47:14;;;;;;;;;;;;;;;11.60;100.00;102257.97;4938677;29;19915;-96
2023/10/05 04:49:44;;;;;;;;;;;;;;;11.60;100.00;102250.13;4938583;29;19915;-96
2023/10/05 04:52:19;;;;;;;;;;;;;;;11.61;100.00;102260.63;4937452;29;19915;-96
2023/10/05 04:54:45;;;;;;;;;;;;;;;11.60;100.00;102258.88;4937512;29;19915;-96
2023/10/05 04:57:34;;;;;;;;;;;;;;;11.59;100.00;102259.69;4938684;29;19922;-96
2023/10/05 05:05:52;;;;;;;;;;;;;;;11.54;100.00;102242.91;4956951;29;19949;-96
2023/10/05 05:11:25;;;;;;;;;;;;;;;11.54;100.00;102249.88;4950298;29;19961;-96
2023/10/05 05:14:24;;;;;;;;;;;;;;;11.54;100.00;102253.38;4939109;29;19919;-96
2023/10/05 05:17:11;;;;;;;;;;;;;;;11.56;100.00;102253.47;4955738;29;19969;-96
2023/10/05 05:19:52;;;;;;;;;;;;;;;11.55;100.00;102254.28;4939372;29;19962;-96
2023/10/05 05:22:27;;;;;;;;;;;;;;;11.56;100.00;102262.16;4938510;29;19914;-96
2023/10/05 05:24:55;;;;;;;;;;;;;;;11.56;100.00;102266.50;4937220;29;19937;-96
2023/10/05 05:27:30;;;;;;;;;;;;;;;11.56;100.00;102258.69;4938772;29;19982;-96
2023/10/05 05:29:56;;;;;;;;;;;;;;;11.58;100.00;102275.28;4937652;29;19915;-96
2023/10/05 05:32:22;;;;;;;;;;;;;;;11.59;100.00;102270.13;4937829;29;19987;-96
2023/10/05 05:34:50;;;;;;;;;;;;;;;11.57;100.00;102263.97;4937137;29;19899;-96
2023/10/05 05:37:49;;;;;;;;;;;;;;;;;;;;;
2023/10/05 05:40:28;;;;;;;;;;;;;;;11.56;100.00;102272.63;4953977;29;19989;-96
2023/10/05 05:43:07;;;;;;;;;;;;;;;11.59;100.00;102269.25;4956627;29;19937;-96
2023/10/05 05:45:34;;;;;;;;;;;;;;;11.60;100.00;102274.53;4937932;29;19922;-96
2023/10/05 05:48:13;;;;;;;;;;;;;;;11.59;100.00;102274.47;4936643;29;19915;-96
2023/10/05 05:50:39;;;;;;;;;;;;;;;11.60;100.00;102284.97;4937084;29;20408;-96
2023/10/05 05:53:06;;;;;;;;;;;;;;;11.60;100.00;102279.75;4937278;29;19923;-96
2023/10/05 05:58:35;;;;;;;;;;;;;;;11.66;100.00;102279.13;4943496;29;19921;-96
2023/10/05 06:01:14;;;;;;;;;;;;;;;11.67;100.00;102283.50;4937510;29;19919;-96
2023/10/05 06:04:15;;;;;;;;;;;;;;;11.68;100.00;102279.19;4955063;29;19915;-96
2023/10/05 06:06:43;;;;;;;;;;;;;;;11.69;100.00;102274.03;4937850;29;19915;-96
2023/10/05 06:09:19;;;;;;;;;;;;;;;11.72;100.00;102283.72;4934234;29;19919;-96
2023/10/05 06:11:45;;;;;;;;;;;;;;;11.73;100.00;102280.25;4923035;29;19911;-96
2023/10/05 06:14:10;;;;;;;;;;;;;;;11.74;100.00;102282.03;4938306;29;19978;-96
2023/10/05 06:16:41;;;;;;;;;;;;;;;11.76;100.00;102290.81;4939006;29;19941;-96
2023/10/05 06:19:12;;;;;;;;;;;;;;;11.75;100.00;102294.28;4939351;29;19915;-96
2023/10/05 06:21:45;;;;;;;;;;;;;;;11.77;100.00;102297.84;4941636;29;19954;-96
2023/10/05 06:24:45;;;;;;;;;;;;;;;11.79;100.00;102301.44;4943093;29;19914;-96
2023/10/05 06:27:15;;;;;;;;;;;;;;;11.80;100.00;102300.56;4943234;29;19921;-96
2023/10/05 06:29:50;;;;;;;;;;;;;;;11.82;100.00;102310.28;4943019;29;19915;-96
2023/10/05 06:32:58;;;;;;;;;;;;;;;;;;;;;
2023/10/05 06:35:28;;;;;;;;;;;;;;;11.87;100.00;102310.44;4901502;29;19949;-96
2023/10/05 06:37:59;;;;;;;;;;;;;;;11.89;100.00;102314.03;4886233;29;19916;-97
2023/10/05 06:40:47;;;;;;;;;;;;;;;11.92;100.00;102311.56;4870175;29;19947;-96
2023/10/05 06:43:37;;;;;;;;;;;;;;;11.94;100.00;102311.66;4883983;29;19907;-96
2023/10/05 06:46:09;;;;;;;;;;;;;;;11.96;100.00;102318.72;4883525;29;19927;-96
2023/10/05 06:48:40;;;;;;;;;;;;;;;11.99;100.00;102320.53;4884300;29;19916;-96
2023/10/05 06:51:30;;;;;;;;;;;;;;;12.00;100.00;102322.34;4884462;29;19927;-96
2023/10/05 06:54:01;;;;;;;;;;;;;;;12.04;100.00;102324.25;4899111;29;19916;-96
2023/10/05 06:56:36;;;;;;;;;;;;;;;12.09;100.00;102329.66;4883667;29;19916;-96
2023/10/05 07:02:04;;;;;;;;;;;;;;;12.09;100.00;102343.63;4907090;29;19931;-96
2023/10/05 07:04:32;;;;;;;;;;;;;;;12.12;100.00;102345.47;4939751;29;19919;-96
2023/10/05 07:07:03;;;;;;;;;;;;;;;12.14;100.00;102342.09;4942342;29;19943;-96
2023/10/05 07:09:38;;;;;;;;;;;;;;;12.19;100.00;102344.91;4941235;29;19915;-96
2023/10/05 07:12:04;;;;;;;;;;;;;;;12.20;100.00;102346.69;4942206;29;19985;-96
2023/10/05 07:14:32;;;;;;;;;;;;;;;12.21;100.00;102352.78;4940734;29;19951;-96
2023/10/05 07:17:01;;;;;;;;;;;;;;;12.23;100.00;102361.59;4925817;29;19954;-96
2023/10/05 07:23:01;;;;;;;;;;;;;;;12.35;100.00;102365.63;4958264;29;19929;-96
2023/10/05 07:25:45;;;;;;;;;;;;;;;12.34;100.00;102363.81;4929985;29;19915;-96
2023/10/05 07:28:14;;;;;;;;;;;;;;;12.43;100.00;102367.66;4942156;29;19930;-96
2023/10/05 07:31:22;;;;;;;;;;;;;;;12.44;100.00;102364.19;4941672;29;19926;-96
2023/10/05 07:33:41;;;;;;;;;;;;;;;12.50;100.00;102373.19;4955390;29;19915;-96
2023/10/05 07:36:15;;;;;;;;;;;;;;;12.56;100.00;102380.38;4958708;29;19982;-96
2023/10/05 07:38:46;;;;;;;;;;;;;;;12.59;100.00;102383.13;4940796;29;19939;-96
2023/10/05 07:41:28;;;;;;;;;;;;;;;12.63;100.00;102382.41;4959425;29;19922;-96
2023/10/05 07:44:03;;;;;;;;;;;;;;;12.72;100.00;102389.72;4942018;29;19915;-96
2023/10/05 07:46:38;;;;;;;;;;;;;;;12.73;100.00;102390.59;4941391;29;19911;-96
2023/10/05 07:49:09;;;;;;;;;;;;;;;12.76;100.00;102385.50;4924482;29;19982;-96
2023/10/05 07:51:41;;;;;;;;;;;;;;;12.82;100.00;102391.00;4942037;29;19934;-96
2023/10/05 07:54:17;;;;;;;;;;;;;;;12.83;100.00;102398.91;4942192;29;19915;-96
2023/10/05 07:56:45;;;;;;;;;;;;;;;12.89;100.00;102398.25;4941372;29;20001;-96
2023/10/05 07:59:19;;;;;;;;;;;;;;;12.95;100.00;102403.72;4941677;29;19942;-96
2023/10/05 08:01:55;;;;;;;;;;;;;;;13.00;100.00;102399.53;4940737;29;19919;-96
2023/10/05 08:07:17;;;;;;;;;;;;;;;13.17;100.00;102396.69;4900042;29;19983;-96
2023/10/05 08:09:45;;;;;;;;;;;;;;;13.18;100.00;102401.97;4888139;29;19915;-96
2023/10/05 08:12:15;;;;;;;;;;;;;;;13.31;100.00;102405.03;4940382;29;19923;-96
2023/10/05 08:14:44;;;;;;;;;;;;;;;13.29;100.00;102398.88;4939644;29;19915;-96
2023/10/05 08:17:20;;;;;;;;;;;;;;;13.29;100.00;102412.84;4939383;29;19915;-96
2023/10/05 08:20:01;;;;;;;;;;;;;;;13.35;100.00;102410.50;4939015;29;19918;-96
2023/10/05 08:22:37;;;;;;;;;;;;;;;13.38;100.00;102401.84;4939043;29;19974;-96
2023/10/05 08:25:16;;;;;;;;;;;;;;;13.47;100.00;102409.16;4939786;29;19914;-96
2023/10/05 08:27:43;;;;;;;;;;;;;;;13.60;100.00;102415.75;4939779;29;19979;-96
2023/10/05 08:30:12;;;;;;;;;;;;;;;13.64;100.00;102404.53;4937269;29;19919;-96
2023/10/05 08:32:53;;;;;;;;;;;;;;;13.60;100.00;102408.78;4940602;29;19914;-96
2023/10/05 08:35:40;;;;;;;;;;;;;;;13.64;100.00;102412.41;4941793;29;19910;-96
2023/10/05 08:38:17;;;;;;;;;;;;;;;13.84;100.00;102414.00;4925813;29;19950;-96
2023/10/05 08:43:40;;;;;;;;;;;;;;;13.82;100.00;102420.94;4956467;29;19926;-96
2023/10/05 08:46:16;;;;;;;;;;;;;;;13.78;100.00;102426.88;4940561;29;19915;-96
2023/10/05 08:49:07;;;;;;;;;;;;;;;13.85;100.00;102435.88;4941191;29;19914;-96
2023/10/05 08:51:44;;;;;;;;;;;;;;;13.91;100.00;102434.34;4939267;29;19981;-97
2023/10/05 08:54:16;;;;;;;;;;;;;;;13.91;100.00;102428.22;4939707;29;19918;-96
2023/10/05 08:56:57;;;;;;;;;;;;;;;13.99;100.00;102437.25;4940771;29;19915;-96
2023/10/05 08:59:29;;;;;;;;;;;;;;;14.04;99.21;102445.28;4940859;29;19938;-96
2023/10/05 09:02:21;;;;;;;;;;;;;;;14.06;99.43;102439.25;4923725;29;19923;-96
2023/10/05 09:05:15;;;;;;;;;;;;;;;14.09;99.65;102441.06;4940552;29;19915;-96
2023/10/05 09:07:44;;;;;;;;;;;;;;;14.12;99.60;102448.16;4940963;29;20050;-96
2023/10/05 09:10:26;;;;;;;;;;;;;;;14.18;98.88;102450.97;4938489;29;19919;-96
2023/10/05 09:13:07;;;;;;;;;;;;;;;14.28;97.60;102466.22;4922244;29;19923;-96
2023/10/05 09:15:59;;;;;;;;;;;;;;;14.37;96.87;102466.50;4918090;29;19906;-96
2023/10/05 09:19:03;;;;;;;;;;;;;;;14.49;96.08;102470.41;4921006;29;19911;-96
2023/10/05 09:21:44;;;;;;;;;;;;;;;14.43;96.81;102479.81;4861882;29;19927;-96
2023/10/05 09:24:40;;;;;;;;;;;;;;;;;;;;;
2023/10/05 09:27:16;;;;;;;;;;;;;;;14.46;97.15;102480.78;4937543;29;19942;-96
2023/10/05 09:29:47;;;;;;;;;;;;;;;14.40;97.65;102487.59;4920578;29;19903;-96
2023/10/05 09:32:30;;;;;;;;;;;;;;;14.47;96.94;102477.31;4905844;29;19922;-96
2023/10/05 09:35:00;;;;;;;;;;;;;;;14.44;97.79;102481.63;4939038;29;19939;-96
2023/10/05 09:37:33;;;;;;;;;;;;;;;14.50;97.46;102493.19;4921445;29;19899;-96
2023/10/05 09:40:03;;;;;;;;;;;;;;;14.52;97.41;102486.22;4921398;29;19927;-96
2023/10/05 09:42:40;;;;;;;;;;;;;;;14.59;97.01;102482.97;4921197;29;19915;-96
2023/10/05 09:45:14;;;;;;;;;;;;;;;14.58;97.98;102478.56;4919911;29;19919;-96
2023/10/05 09:47:40;;;;;;;;;;;;;;;14.65;98.09;102474.47;4920538;29;19899;-96
2023/10/05 09:50:29;;;;;;;;;;;;;;;14.74;96.60;102475.66;4921184;29;19930;-96
2023/10/05 09:53:08;;;;;;;;;;;;;;;14.73;96.96;102480.81;4921609;29;19906;-96
2023/10/05 09:55:40;;;;;;;;;;;;;;;14.74;96.89;102480.91;4924299;29;19916;-96
2023/10/05 09:58:18;;;;;;;;;;;;;;;14.75;97.35;102487.03;4925201;29;19915;-96
2023/10/05 10:00:56;;;;;;;;;;;;;;;14.81;96.45;102478.47;4924138;29;19926;-96
2023/10/05 10:03:48;;;;;;;;;;;;;;;14.81;96.89;102484.59;4923187;29;19929;-96
2023/10/05 10:06:39;;;;;;;;;;;;;;;;;;;;;
2023/10/05 10:09:13;;;;;;;;;;;;;;;14.83;96.76;102482.03;4940396;29;19939;-96
2023/10/05 10:11:50;;;;;;;;;;;;;;;14.93;96.47;102490.25;4934886;29;19923;-96
2023/10/05 10:14:26;;;;;;;;;;;;;;;14.89;96.37;102493.63;4940113;29;19922;-96
2023/10/05 10:17:00;;;;;;;;;;;;;;;14.91;96.21;102485.78;4940615;29;19914;-96
2023/10/05 10:19:37;;;;;;;;;;;;;;;14.96;96.35;102484.19;4942917;29;19915;-96
2023/10/05 10:22:06;;;;;;;;;;;;;;;14.92;96.84;102485.84;4942395;29;19946;-96
2023/10/05 10:24:34;;;;;;;;;;;;;;;14.97;96.79;102485.09;4923165;29;19951;-96
2023/10/05 10:27:18;;;;;;;;;;;;;;;15.03;96.78;102480.03;4941024;29;19926;-96
2023/10/05 10:30:04;;;;;;;;;;;;;;;15.07;96.75;102488.06;4917421;29;19899;-96
2023/10/05 10:32:32;;;;;;;;;;;;;;;15.13;96.39;102480.41;4902113;29;19954;-96
2023/10/05 10:35:12;;;;;;;;;;;;;;;15.12;96.35;102481.22;4901204;29;19951;-96
2023/10/05 10:37:44;;;;;;;;;;;;;;;15.21;95.50;102475.38;4902787;29;20421;-96
2023/10/05 10:43:17;;;;;;;;;;;;;;;15.23;94.88;102488.53;4913439;29;19932;-96
2023/10/05 10:45:49;;;;;;;;;;;;;;;15.33;95.04;102485.34;4903106;29;19916;-96
2023/10/05 10:50:55;;;;;;;;;;;;;;;15.63;94.25;102485.38;4918237;29;19915;-96
2023/10/05 10:53:25;;;;;;;;;;;;;;;15.73;93.53;102480.38;4900509;29;19942;-96
2023/10/05 10:56:48;;;;;;;;;;;;;;;15.89;93.43;102472.13;4902922;29;20014;-96
2023/10/05 11:02:00;;;;;;;;;;;;;;;16.40;88.92;102460.31;4938661;29;19923;-96
2023/10/05 11:04:51;;;;;;;;;;;;;;;16.54;89.67;102462.38;4939903;29;19915;-96
2023/10/05 11:07:22;;;;;;;;;;;;;;;16.73;90.13;102464.63;4942950;29;19899;-96
2023/10/05 11:09:52;;;;;;;;;;;;;;;16.96;89.22;102466.94;4942903;29;20416;-96
2023/10/05 11:12:32;;;;;;;;;;;;;;;17.21;86.48;102469.28;4939530;29;19974;-96
2023/10/05 11:15:11;;;;;;;;;;;;;;;17.40;85.32;102469.69;4940923;29;20731;-96
2023/10/05 11:17:45;;;;;;;;;;;;;;;17.59;84.16;102464.81;4940021;29;19933;-96
2023/10/05 11:20:36;;;;;;;;;;;;;;;17.61;83.70;102450.81;4939768;29;19961;-96
2023/10/05 11:23:10;;;;;;;;;;;;;;;17.70;84.16;102468.56;4941120;29;20005;-96
2023/10/05 11:26:17;;;;;;;;;;;;;;;17.85;82.77;102467.97;4941074;29;19926;-96
2023/10/05 11:28:49;;;;;;;;;;;;;;;17.85;82.25;102463.56;4956743;29;19939;-96
2023/10/05 11:31:26;;;;;;;;;;;;;;;17.89;83.56;102460.13;4942146;29;19978;-96
2023/10/05 11:34:19;;;;;;;;;;;;;;;18.12;81.07;102457.09;4942169;29;19918;-96
2023/10/05 11:37:11;;;;;;;;;;;;;;;18.35;80.59;102456.59;4936820;29;19958;-96
2023/10/05 11:39:58;;;;;;;;;;;;;;;18.48;80.68;102458.59;4941338;29;19939;-96
2023/10/05 11:42:35;;;;;;;;;;;;;;;18.69;77.63;102454.53;4936667;29;19915;-96
2023/10/05 11:45:03;;;;;;;;;;;;;;;18.60;80.37;102460.53;4939867;29;19942;-96
2023/10/05 11:48:13;;;;;;;;;;;;;;;18.70;81.20;102457.19;4916406;29;19927;-96
2023/10/05 11:50:35;;;;;;;;;;;;;;;18.92;79.13;102457.53;4907112;29;19920;-96
2023/10/05 11:53:10;;;;;;;;;;;;;;;18.92;75.37;102463.72;4898860;29;19916;-96
2023/10/05 11:55:43;;;;;;;;;;;;;;;18.70;74.96;102462.47;4899873;29;19915;-96
2023/10/05 11:58:24;;;;;;;;;;;;;;;18.52;76.33;102465.69;4899157;29;19995;-96
2023/10/05 12:00:55;;;;;;;;;;;;;;;18.51;75.01;102469.19;4898829;29;19931;-96
2023/10/05 12:03:21;;;;;;;;;;;;;;;18.20;77.46;102449.31;4897703;29;19960;-96
2023/10/05 12:05:54;;;;;;;;;;;;;;;18.37;76.30;102452.25;4898206;29;19915;-96
2023/10/05 12:08:19;;;;;;;;;;;;;;;18.20;75.26;102455.44;4897901;29;19953;-96
2023/10/05 12:10:58;;;;;;;;;;;;;;;18.07;76.12;102458.75;4897788;29;19931;-96
2023/10/05 12:13:27;;;;;;;;;;;;;;;17.96;76.99;102462.91;4898132;29;20032;-96
2023/10/05 12:15:55;;;;;;;;;;;;;;;18.02;77.13;102460.41;4895964;29;19916;-96
2023/10/05 12:18:24;;;;;;;;;;;;;;;18.10;74.82;102453.50;4894875;29;20527;-96
2023/10/05 12:20:49;;;;;;;;;;;;;;;17.86;75.51;102462.72;4894428;29;19924;-96
2023/10/05 12:23:17;;;;;;;;;;;;;;;17.73;76.46;102460.72;4894615;29;20319;-96
2023/10/05 12:25:46;;;;;;;;;;;;;;;17.60;77.34;102456.94;4928133;29;20389;-96
2023/10/05 12:28:14;;;;;;;;;;;;;;;17.65;76.96;102457.91;4927762;29;19961;-96
2023/10/05 12:30:44;;;;;;;;;;;;;;;17.47;78.31;102450.53;4931823;29;20449;-96
2023/10/05 12:33:15;;;;;;;;;;;;;;;17.45;79.09;102452.25;4935733;29;19971;-96
2023/10/05 12:35:43;;;;;;;;;;;;;;;17.62;78.67;102454.31;4933977;29;19939;-96
2023/10/05 12:38:13;;;;;;;;;;;;;;;17.62;78.97;102459.59;4935015;29;19915;-96
2023/10/05 12:40:47;;;;;;;;;;;;;;;17.81;77.11;102464.38;4932600;29;20009;-96
2023/10/05 12:43:15;;;;;;;;;;;;;;;17.59;78.52;102462.19;4933870;29;19919;-96
2023/10/05 12:45:53;;;;;;;;;;;;;;;17.72;78.64;102458.94;4935572;29;19938;-96
2023/10/05 12:48:21;;;;;;;;;;;;;;;17.81;80.11;102467.00;4935066;29;20361;-96
2023/10/05 12:50:48;;;;;;;;;;;;;;;18.03;78.31;102454.25;4934759;29;19922;-96
2023/10/05 12:53:16;;;;;;;;;;;;;;;18.25;75.82;102452.94;4933731;29;19914;-96
2023/10/05 12:55:41;;;;;;;;;;;;;;;18.32;72.87;102451.25;4931362;29;19919;-96
2023/10/05 12:58:11;;;;;;;;;;;;;;;18.16;74.92;102458.94;4932388;29;19923;-96
2023/10/05 13:00:43;;;;;;;;;;;;;;;18.24;76.86;102457.28;4932874;29;19953;-96
2023/10/05 13:03:12;;;;;;;;;;;;;;;18.49;77.08;102475.31;4934201;29;19918;-96
2023/10/05 13:05:46;;;;;;;;;;;;;;;18.66;73.74;102468.56;4933120;29;19946;-96
2023/10/05 13:08:17;;;;;;;;;;;;;;;18.69;73.88;102459.81;4933680;29;20010;-96
2023/10/05 13:10:48;;;;;;;;;;;;;;;18.70;73.14;102461.59;4934264;29;19915;-96
2023/10/05 13:13:21;;;;;;;;;;;;;;;18.70;73.85;102461.59;4932330;29;19974;-96
2023/10/05 13:15:47;;;;;;;;;;;;;;;18.73;72.39;102456.34;4931468;29;19933;-96
2023/10/05 13:18:18;;;;;;;;;;;;;;;18.73;73.85;102464.28;4931114;29;19926;-96
2023/10/05 13:20:50;;;;;;;;;;;;;;;18.85;75.09;102456.53;4932243;29;19919;-96
2023/10/05 13:23:21;;;;;;;;;;;;;;;18.98;73.14;102456.75;4931785;29;19915;-96
2023/10/05 13:25:50;;;;;;;;;;;;;;;19.02;70.64;102445.38;4932317;29;20012;-96
2023/10/05 13:28:19;;;;;;;;;;;;;;;18.93;71.12;102460.22;4932900;29;19922;-96
2023/10/05 13:30:54;;;;;;;;;;;;;;;18.91;71.00;102439.91;4933565;29;19919;-96
2023/10/05 13:33:28;;;;;;;;;;;;;;;18.88;70.46;102451.31;4932066;29;19978;-96
2023/10/05 13:36:04;;;;;;;;;;;;;;;18.83;72.04;102441.50;4929720;29;20306;-96
2023/10/05 13:38:33;;;;;;;;;;;;;;;18.89;70.01;102441.66;4927525;29;20404;-96
2023/10/05 13:43:47;;;;;;;;;;;;;;;19.02;70.73;102438.31;4947350;29;20365;-96
2023/10/05 13:46:23;;;;;;;;;;;;;;;19.16;70.58;102438.53;4929228;29;20352;-96
2023/10/05 13:48:56;;;;;;;;;;;;;;;19.37;69.31;102431.72;4930858;29;20002;-96
2023/10/05 13:51:22;;;;;;;;;;;;;;;19.42;70.36;102427.38;4929935;29;20009;-96
2023/10/05 13:54:06;;;;;;;;;;;;;;;19.55;67.15;102434.59;4930232;29;19921;-96
2023/10/05 13:56:37;;;;;;;;;;;;;;;19.57;68.75;102431.97;4930186;29;19948;-96
2023/10/05 13:59:05;;;;;;;;;;;;;;;19.70;67.98;102435.66;4934683;29;19947;-96
2023/10/05 14:01:42;;;;;;;;;;;;;;;19.76;66.53;102435.72;4930836;29;19933;-96
2023/10/05 14:04:15;;;;;;;;;;;;;;;19.91;64.31;102427.94;4928858;29;19969;-96
2023/10/05 14:06:49;;;;;;;;;;;;;;;19.87;65.21;102431.47;4928098;29;20320;-96
2023/10/05 14:09:26;;;;;;;;;;;;;;;19.87;65.52;102435.84;4928120;29;19922;-96
2023/10/05 14:11:54;;;;;;;;;;;;;;;19.92;66.80;102426.22;4928397;29;19965;-96
2023/10/05 14:14:27;;;;;;;;;;;;;;;20.00;66.16;102423.63;4928068;29;19950;-96
2023/10/05 14:16:55;;;;;;;;;;;;;;;20.01;66.02;102425.41;4927072;29;19915;-96
2023/10/05 14:19:27;;;;;;;;;;;;;;;20.04;66.65;102415.72;4926442;29;19919;-96
2023/10/05 14:21:52;;;;;;;;;;;;;;;20.03;66.50;102419.28;4924495;29;19919;-96
2023/10/05 14:24:22;;;;;;;;;;;;;;;20.09;65.56;102418.44;4927169;29;19915;-96
2023/10/05 14:26:54;;;;;;;;;;;;;;;20.06;65.01;102427.25;4926055;29;19919;-96
2023/10/05 14:29:34;;;;;;;;;;;;;;;20.07;66.11;102418.41;4925071;29;19922;-96